Midland International Airport
KMAF : now visible

Airfield :











YOU CAN JOIN US ON...

 
LOGIN :

Register | Disclaimer

   EN    FR    IT 

 









Legend :    VFR   Marginal VFR   IFR   Intensive IFR   Very Intensive IFR
Visi :
Ceiling :
>= 8 km
>= 3000ft
5 to 8 km
1000 to 3000 ft
1500m to 5 km
500 to 1000 ft
800 to 1500m
200 to 500 ft
< 800m
< 200 ft
Symbols :   Thunderstorms  Fog  Heavy snow  Heavy precipitations  Wind > 20 kt






- Airport Elevation : 2871 ft
- IATA code : MAF


KMAF - Midland International

CURRENT METAR :
  • 232353Z 17019KT 10SM CLR 18/12 A2992 RMK AO2 PK WND 16028/2339 SLP107 T01780117 10200 20133 56015

EXPIRED METARs :
  • 232253Z 17017G29KT 10SM CLR 19/12 A2993 RMK AO2 PK WND 16030/2220 SLP107 T01940117
  • 232153Z 16024G27KT 10SM SCT032 20/12 A2994 RMK AO2 PK WND 16030/2110 SLP110 T02000117

TAF KMAF
Valid from the 24 at 00:00 until the 25 at 00:00 UTC


232320Z 2400/2424 16020G25KT P6SM SCT035
FM240400 16020G28KT P6SM OVC025
FM241500 22025G33KT P6SM OVC250
FM241800 26029G38KT 5SM BLDU SCT250
KZFW FIR / North America



MET'MAP, your aeronautical weather chart ! - Copyright ORBIFLY December 2007 - Disclaimer

ORBIFLY MET'MAP TEAM :

Programming & Development : Alexandra Zaïnal
Concept & original design : Baudouin d'Aumeries
Assistance for programming : Marc-Olivier Méhu
Technical & hardware support : Manuel Goepfert

Contact : metmap@orbifly.com




SOURCES & CREDITS :

   NOAA       Earth
Advisory